Rollingstone/Halifax Bay, Australia
Current Conditions -  °F | °C
As of 9:00 AM on Saturday 29 Nov 2014 (Local Time) from YBTL Reporting Station
Scattered Clouds Scattered Clouds  
Wind Chill: 84°   Ceiling: Unl
Heat Index: 86°   Visibility: 6mi
Dew Point: 66°   Wind: 17mph
Humidity: 55%   Direction: 110°ESE
Pressure: 29.91"   Gusts: NA
Location:  18.83°S, 146.5°E
Report Text: YBTL 282300Z 11015KT 9999 SCT032 29/19 Q1013
Loading
Personal Weather Stations






























Interactive Weather Map New forecast layout! Learn more

10-Day Weather Forecast

Advertisements
Track Severe Weather on mobile